sensor_id;sensor_type;location;lat;lon;timestamp;temperature;humidity
63537;DHT22;49686;51.880;5.632;2024-02-04T00:01:26;10.60;99.90
63537;DHT22;49686;51.880;5.632;2024-02-04T00:03:53;10.50;99.90
63537;DHT22;49686;51.880;5.632;2024-02-04T00:06:20;10.50;99.90
63537;DHT22;49686;51.880;5.632;2024-02-04T00:08:47;10.50;99.90
63537;DHT22;49686;51.880;5.632;2024-02-04T00:11:14;10.60;99.90
63537;DHT22;49686;51.880;5.632;2024-02-04T00:13:40;10.60;99.90
63537;DHT22;49686;51.880;5.632;2024-02-04T00:16:09;10.60;99.90
63537;DHT22;49686;51.880;5.632;2024-02-04T00:18:36;10.60;99.90
63537;DHT22;49686;51.880;5.632;2024-02-04T00:21:03;10.60;99.90
63537;DHT22;49686;51.880;5.632;2024-02-04T00:23:30;10.60;99.90
63537;DHT22;49686;51.880;5.632;2024-02-04T00:25:57;10.60;99.90
63537;DHT22;49686;51.880;5.632;2024-02-04T00:28:24;10.60;99.90
63537;DHT22;49686;51.880;5.632;2024-02-04T00:30:51;10.60;99.90
63537;DHT22;49686;51.880;5.632;2024-02-04T00:33:19;10.60;99.90
63537;DHT22;49686;51.880;5.632;2024-02-04T00:35:46;10.60;99.90
63537;DHT22;49686;51.880;5.632;2024-02-04T00:38:13;10.60;99.90
63537;DHT22;49686;51.880;5.632;2024-02-04T00:40:40;10.60;99.90
63537;DHT22;49686;51.880;5.632;2024-02-04T00:43:07;10.60;99.90
63537;DHT22;49686;51.880;5.632;2024-02-04T00:45:34;10.60;99.90
63537;DHT22;49686;51.880;5.632;2024-02-04T00:48:01;10.60;99.90
63537;DHT22;49686;51.880;5.632;2024-02-04T00:50:29;10.60;99.90
63537;DHT22;49686;51.880;5.632;2024-02-04T00:52:56;10.60;99.90
63537;DHT22;49686;51.880;5.632;2024-02-04T00:55:23;10.60;99.90
63537;DHT22;49686;51.880;5.632;2024-02-04T00:57:50;10.70;99.90
63537;DHT22;49686;51.880;5.632;2024-02-04T01:00:17;10.60;99.90
63537;DHT22;49686;51.880;5.632;2024-02-04T01:02:44;10.60;99.90
63537;DHT22;49686;51.880;5.632;2024-02-04T01:05:11;10.70;99.90
63537;DHT22;49686;51.880;5.632;2024-02-04T01:07:39;10.70;99.90
63537;DHT22;49686;51.880;5.632;2024-02-04T01:10:07;10.70;99.90
63537;DHT22;49686;51.880;5.632;2024-02-04T01:12:36;10.70;99.90
63537;DHT22;49686;51.880;5.632;2024-02-04T01:15:03;10.70;99.90
63537;DHT22;49686;51.880;5.632;2024-02-04T01:17:30;10.70;99.90
63537;DHT22;49686;51.880;5.632;2024-02-04T01:19:57;10.70;99.90
63537;DHT22;49686;51.880;5.632;2024-02-04T01:22:24;10.70;99.90
63537;DHT22;49686;51.880;5.632;2024-02-04T01:24:52;10.70;99.90
63537;DHT22;49686;51.880;5.632;2024-02-04T01:27:19;10.70;99.90
63537;DHT22;49686;51.880;5.632;2024-02-04T01:29:46;10.70;99.90
63537;DHT22;49686;51.880;5.632;2024-02-04T01:32:13;10.70;99.90
63537;DHT22;49686;51.880;5.632;2024-02-04T01:34:40;10.70;99.90
63537;DHT22;49686;51.880;5.632;2024-02-04T01:37:07;10.60;99.90
63537;DHT22;49686;51.880;5.632;2024-02-04T01:39:34;10.60;99.90
63537;DHT22;49686;51.880;5.632;2024-02-04T01:42:02;10.60;99.90
63537;DHT22;49686;51.880;5.632;2024-02-04T01:44:29;10.60;99.90
63537;DHT22;49686;51.880;5.632;2024-02-04T01:46:56;10.60;99.90
63537;DHT22;49686;51.880;5.632;2024-02-04T01:49:23;10.60;99.90
63537;DHT22;49686;51.880;5.632;2024-02-04T01:51:50;10.60;99.90
63537;DHT22;49686;51.880;5.632;2024-02-04T01:54:17;10.60;99.90
63537;DHT22;49686;51.880;5.632;2024-02-04T01:56:46;10.60;99.90
63537;DHT22;49686;51.880;5.632;2024-02-04T01:59:15;10.60;99.90
63537;DHT22;49686;51.880;5.632;2024-02-04T02:01:42;10.60;99.90
63537;DHT22;49686;51.880;5.632;2024-02-04T02:04:09;10.60;99.90
63537;DHT22;49686;51.880;5.632;2024-02-04T02:06:36;10.60;99.90
63537;DHT22;49686;51.880;5.632;2024-02-04T02:09:04;10.60;99.90
63537;DHT22;49686;51.880;5.632;2024-02-04T02:11:35;10.60;99.90
63537;DHT22;49686;51.880;5.632;2024-02-04T02:14:06;10.60;99.90
63537;DHT22;49686;51.880;5.632;2024-02-04T02:16:36;10.60;99.90
63537;DHT22;49686;51.880;5.632;2024-02-04T02:19:12;10.60;99.90
63537;DHT22;49686;51.880;5.632;2024-02-04T02:21:47;10.60;99.90
63537;DHT22;49686;51.880;5.632;2024-02-04T02:24:28;10.60;99.90
63537;DHT22;49686;51.880;5.632;2024-02-04T02:26:56;10.60;99.90
63537;DHT22;49686;51.880;5.632;2024-02-04T02:29:23;10.60;99.90
63537;DHT22;49686;51.880;5.632;2024-02-04T02:31:50;10.60;99.90
63537;DHT22;49686;51.880;5.632;2024-02-04T02:34:17;10.60;99.90
63537;DHT22;49686;51.880;5.632;2024-02-04T02:36:55;10.60;99.90
63537;DHT22;49686;51.880;5.632;2024-02-04T02:39:29;10.50;99.90
63537;DHT22;49686;51.880;5.632;2024-02-04T02:41:59;10.50;99.90
63537;DHT22;49686;51.880;5.632;2024-02-04T02:44:31;10.50;99.90
63537;DHT22;49686;51.880;5.632;2024-02-04T02:47:01;10.50;99.90
63537;DHT22;49686;51.880;5.632;2024-02-04T02:49:28;10.50;99.90
63537;DHT22;49686;51.880;5.632;2024-02-04T02:51:55;10.50;99.90
63537;DHT22;49686;51.880;5.632;2024-02-04T02:54:22;10.50;99.90
63537;DHT22;49686;51.880;5.632;2024-02-04T02:56:51;10.40;99.90
63537;DHT22;49686;51.880;5.632;2024-02-04T02:59:17;10.40;99.90
63537;DHT22;49686;51.880;5.632;2024-02-04T03:01:44;10.40;99.90
63537;DHT22;49686;51.880;5.632;2024-02-04T03:04:11;10.40;99.90
63537;DHT22;49686;51.880;5.632;2024-02-04T03:06:38;10.40;99.90
63537;DHT22;49686;51.880;5.632;2024-02-04T03:09:05;10.40;99.90
63537;DHT22;49686;51.880;5.632;2024-02-04T03:11:32;10.40;99.90
63537;DHT22;49686;51.880;5.632;2024-02-04T03:14:01;10.40;99.90
63537;DHT22;49686;51.880;5.632;2024-02-04T03:16:28;10.40;99.90
63537;DHT22;49686;51.880;5.632;2024-02-04T03:18:55;10.40;99.90
63537;DHT22;49686;51.880;5.632;2024-02-04T03:21:22;10.40;99.90
63537;DHT22;49686;51.880;5.632;2024-02-04T03:23:49;10.40;99.90
63537;DHT22;49686;51.880;5.632;2024-02-04T03:26:17;10.40;99.90
63537;DHT22;49686;51.880;5.632;2024-02-04T03:28:44;10.40;99.90
63537;DHT22;49686;51.880;5.632;2024-02-04T03:31:18;10.40;99.90
63537;DHT22;49686;51.880;5.632;2024-02-04T03:33:46;10.40;99.90
63537;DHT22;49686;51.880;5.632;2024-02-04T03:36:15;10.40;99.90
63537;DHT22;49686;51.880;5.632;2024-02-04T03:38:42;10.40;99.90
63537;DHT22;49686;51.880;5.632;2024-02-04T03:41:09;10.40;99.90
63537;DHT22;49686;51.880;5.632;2024-02-04T03:43:36;10.30;99.90
63537;DHT22;49686;51.880;5.632;2024-02-04T03:46:03;10.30;99.90
63537;DHT22;49686;51.880;5.632;2024-02-04T03:48:31;10.30;99.90
63537;DHT22;49686;51.880;5.632;2024-02-04T03:50:58;10.30;99.90
63537;DHT22;49686;51.880;5.632;2024-02-04T03:53:25;10.20;99.90
63537;DHT22;49686;51.880;5.632;2024-02-04T03:55:52;10.20;99.90
63537;DHT22;49686;51.880;5.632;2024-02-04T03:58:20;10.20;99.90
63537;DHT22;49686;51.880;5.632;2024-02-04T04:00:47;10.20;99.90
63537;DHT22;49686;51.880;5.632;2024-02-04T04:03:14;10.20;99.90
63537;DHT22;49686;51.880;5.632;2024-02-04T04:05:42;10.20;99.90
63537;DHT22;49686;51.880;5.632;2024-02-04T04:08:09;10.20;99.90
63537;DHT22;49686;51.880;5.632;2024-02-04T04:10:36;10.20;99.90
63537;DHT22;49686;51.880;5.632;2024-02-04T04:13:03;10.10;99.90
63537;DHT22;49686;51.880;5.632;2024-02-04T04:15:30;10.10;99.90
63537;DHT22;49686;51.880;5.632;2024-02-04T04:17:57;10.10;99.90
63537;DHT22;49686;51.880;5.632;2024-02-04T04:20:23;10.10;99.90
63537;DHT22;49686;51.880;5.632;2024-02-04T04:22:52;10.10;99.90
63537;DHT22;49686;51.880;5.632;2024-02-04T04:25:19;10.10;99.90
63537;DHT22;49686;51.880;5.632;2024-02-04T04:27:45;10.10;99.90
63537;DHT22;49686;51.880;5.632;2024-02-04T04:30:13;10.10;99.90
63537;DHT22;49686;51.880;5.632;2024-02-04T04:32:39;10.10;99.90
63537;DHT22;49686;51.880;5.632;2024-02-04T04:35:07;10.10;99.90
63537;DHT22;49686;51.880;5.632;2024-02-04T04:37:34;10.10;99.90
63537;DHT22;49686;51.880;5.632;2024-02-04T04:40:02;10.10;99.90
63537;DHT22;49686;51.880;5.632;2024-02-04T04:42:29;10.10;99.90
63537;DHT22;49686;51.880;5.632;2024-02-04T04:44:56;10.10;99.90
63537;DHT22;49686;51.880;5.632;2024-02-04T04:47:23;10.10;99.90
63537;DHT22;49686;51.880;5.632;2024-02-04T04:49:50;10.10;99.90
63537;DHT22;49686;51.880;5.632;2024-02-04T04:52:17;10.20;99.90
63537;DHT22;49686;51.880;5.632;2024-02-04T04:54:44;10.20;99.90
63537;DHT22;49686;51.880;5.632;2024-02-04T04:57:12;10.20;99.90
63537;DHT22;49686;51.880;5.632;2024-02-04T04:59:39;10.20;99.90
63537;DHT22;49686;51.880;5.632;2024-02-04T05:02:06;10.30;99.90
63537;DHT22;49686;51.880;5.632;2024-02-04T05:04:33;10.30;99.90
63537;DHT22;49686;51.880;5.632;2024-02-04T05:07:00;10.30;99.90
63537;DHT22;49686;51.880;5.632;2024-02-04T05:09:27;10.30;99.90
63537;DHT22;49686;51.880;5.632;2024-02-04T05:11:54;10.30;99.90
63537;DHT22;49686;51.880;5.632;2024-02-04T05:14:22;10.30;99.90
63537;DHT22;49686;51.880;5.632;2024-02-04T05:16:49;10.30;99.90
63537;DHT22;49686;51.880;5.632;2024-02-04T05:19:16;10.30;99.90
63537;DHT22;49686;51.880;5.632;2024-02-04T05:21:43;10.30;99.90
63537;DHT22;49686;51.880;5.632;2024-02-04T05:24:10;10.30;99.90
63537;DHT22;49686;51.880;5.632;2024-02-04T05:26:38;10.30;99.90
63537;DHT22;49686;51.880;5.632;2024-02-04T05:29:05;10.30;99.90
63537;DHT22;49686;51.880;5.632;2024-02-04T05:31:41;10.30;99.90
63537;DHT22;49686;51.880;5.632;2024-02-04T05:34:08;10.30;99.90
63537;DHT22;49686;51.880;5.632;2024-02-04T05:36:35;10.30;99.90
63537;DHT22;49686;51.880;5.632;2024-02-04T05:39:09;10.30;99.90
63537;DHT22;49686;51.880;5.632;2024-02-04T05:41:36;10.30;99.90
63537;DHT22;49686;51.880;5.632;2024-02-04T05:44:03;10.30;99.90
63537;DHT22;49686;51.880;5.632;2024-02-04T05:46:30;10.30;99.90
63537;DHT22;49686;51.880;5.632;2024-02-04T05:48:58;10.30;99.90
63537;DHT22;49686;51.880;5.632;2024-02-04T05:51:25;10.30;99.90
63537;DHT22;49686;51.880;5.632;2024-02-04T05:53:52;10.30;99.90
63537;DHT22;49686;51.880;5.632;2024-02-04T05:56:19;10.30;99.90
63537;DHT22;49686;51.880;5.632;2024-02-04T05:58:46;10.30;99.90
63537;DHT22;49686;51.880;5.632;2024-02-04T06:01:14;10.30;99.90
63537;DHT22;49686;51.880;5.632;2024-02-04T06:03:41;10.30;99.90
63537;DHT22;49686;51.880;5.632;2024-02-04T06:06:14;10.30;99.90
63537;DHT22;49686;51.880;5.632;2024-02-04T06:08:41;10.30;99.90
63537;DHT22;49686;51.880;5.632;2024-02-04T06:11:10;10.20;99.90
63537;DHT22;49686;51.880;5.632;2024-02-04T06:13:37;10.20;99.90
63537;DHT22;49686;51.880;5.632;2024-02-04T06:16:05;10.20;99.90
63537;DHT22;49686;51.880;5.632;2024-02-04T06:18:32;10.20;99.90
63537;DHT22;49686;51.880;5.632;2024-02-04T06:20:59;10.20;99.90
63537;DHT22;49686;51.880;5.632;2024-02-04T06:23:27;10.20;99.90
63537;DHT22;49686;51.880;5.632;2024-02-04T06:25:54;10.20;99.90
63537;DHT22;49686;51.880;5.632;2024-02-04T06:28:21;10.20;99.90
63537;DHT22;49686;51.880;5.632;2024-02-04T06:30:48;10.20;99.90
63537;DHT22;49686;51.880;5.632;2024-02-04T06:33:15;10.20;99.90
63537;DHT22;49686;51.880;5.632;2024-02-04T06:35:42;10.20;99.90
63537;DHT22;49686;51.880;5.632;2024-02-04T06:38:09;10.20;99.90
63537;DHT22;49686;51.880;5.632;2024-02-04T06:40:38;10.20;99.90
63537;DHT22;49686;51.880;5.632;2024-02-04T06:43:05;10.20;99.90
63537;DHT22;49686;51.880;5.632;2024-02-04T06:45:31;10.20;99.90
63537;DHT22;49686;51.880;5.632;2024-02-04T06:47:59;10.20;99.90
63537;DHT22;49686;51.880;5.632;2024-02-04T06:50:25;10.30;99.90
63537;DHT22;49686;51.880;5.632;2024-02-04T06:52:52;10.30;99.90
63537;DHT22;49686;51.880;5.632;2024-02-04T06:55:19;10.30;99.90
63537;DHT22;49686;51.880;5.632;2024-02-04T06:57:47;10.30;99.90
63537;DHT22;49686;51.880;5.632;2024-02-04T07:00:15;10.30;99.90
63537;DHT22;49686;51.880;5.632;2024-02-04T07:02:42;10.30;99.90
63537;DHT22;49686;51.880;5.632;2024-02-04T07:05:09;10.30;99.90
63537;DHT22;49686;51.880;5.632;2024-02-04T07:07:36;10.30;99.90
63537;DHT22;49686;51.880;5.632;2024-02-04T07:10:03;10.40;99.90
63537;DHT22;49686;51.880;5.632;2024-02-04T07:12:31;10.30;99.90
63537;DHT22;49686;51.880;5.632;2024-02-04T07:14:59;10.40;99.90
63537;DHT22;49686;51.880;5.632;2024-02-04T07:17:26;10.40;99.90
63537;DHT22;49686;51.880;5.632;2024-02-04T07:19:53;10.40;99.90
63537;DHT22;49686;51.880;5.632;2024-02-04T07:22:20;10.40;99.90
63537;DHT22;49686;51.880;5.632;2024-02-04T07:24:47;10.40;99.90
63537;DHT22;49686;51.880;5.632;2024-02-04T07:27:14;10.40;99.90
63537;DHT22;49686;51.880;5.632;2024-02-04T07:29:41;10.40;99.90
63537;DHT22;49686;51.880;5.632;2024-02-04T07:32:09;10.40;99.90
63537;DHT22;49686;51.880;5.632;2024-02-04T07:34:36;10.40;99.90
63537;DHT22;49686;51.880;5.632;2024-02-04T07:37:03;10.40;99.90
63537;DHT22;49686;51.880;5.632;2024-02-04T07:39:30;10.40;99.90
63537;DHT22;49686;51.880;5.632;2024-02-04T07:41:57;10.40;99.90
63537;DHT22;49686;51.880;5.632;2024-02-04T07:44:24;10.40;99.90
63537;DHT22;49686;51.880;5.632;2024-02-04T07:46:51;10.30;99.90
63537;DHT22;49686;51.880;5.632;2024-02-04T07:49:19;10.30;99.90
63537;DHT22;49686;51.880;5.632;2024-02-04T07:51:46;10.40;99.90
63537;DHT22;49686;51.880;5.632;2024-02-04T07:54:13;10.30;99.90
63537;DHT22;49686;51.880;5.632;2024-02-04T07:56:40;10.30;99.90
63537;DHT22;49686;51.880;5.632;2024-02-04T07:59:07;10.30;99.90
63537;DHT22;49686;51.880;5.632;2024-02-04T08:01:34;10.30;99.90
63537;DHT22;49686;51.880;5.632;2024-02-04T08:04:01;10.30;99.90
63537;DHT22;49686;51.880;5.632;2024-02-04T08:06:29;10.30;99.90
63537;DHT22;49686;51.880;5.632;2024-02-04T08:08:56;10.30;99.90
63537;DHT22;49686;51.880;5.632;2024-02-04T08:11:23;10.30;99.90
63537;DHT22;49686;51.880;5.632;2024-02-04T08:13:50;10.30;99.90
63537;DHT22;49686;51.880;5.632;2024-02-04T08:16:17;10.30;99.90
63537;DHT22;49686;51.880;5.632;2024-02-04T08:18:44;10.30;99.90
63537;DHT22;49686;51.880;5.632;2024-02-04T08:21:11;10.30;99.90
63537;DHT22;49686;51.880;5.632;2024-02-04T08:23:40;10.30;99.90
63537;DHT22;49686;51.880;5.632;2024-02-04T08:26:07;10.30;99.90
63537;DHT22;49686;51.880;5.632;2024-02-04T08:28:33;10.20;99.90
63537;DHT22;49686;51.880;5.632;2024-02-04T08:31:00;10.20;99.90
63537;DHT22;49686;51.880;5.632;2024-02-04T08:33:27;10.10;99.90
63537;DHT22;49686;51.880;5.632;2024-02-04T08:35:54;10.10;99.90
63537;DHT22;49686;51.880;5.632;2024-02-04T08:38:21;10.20;99.90
63537;DHT22;49686;51.880;5.632;2024-02-04T08:40:49;10.20;99.90
63537;DHT22;49686;51.880;5.632;2024-02-04T08:43:16;10.20;99.90
63537;DHT22;49686;51.880;5.632;2024-02-04T08:45:43;10.20;99.90
63537;DHT22;49686;51.880;5.632;2024-02-04T08:48:10;10.30;99.90
63537;DHT22;49686;51.880;5.632;2024-02-04T08:50:37;10.30;99.90
63537;DHT22;49686;51.880;5.632;2024-02-04T08:53:04;10.30;99.90
63537;DHT22;49686;51.880;5.632;2024-02-04T08:55:31;10.40;99.90
63537;DHT22;49686;51.880;5.632;2024-02-04T08:57:59;10.50;99.90
63537;DHT22;49686;51.880;5.632;2024-02-04T09:00:26;10.50;99.90
63537;DHT22;49686;51.880;5.632;2024-02-04T09:02:53;10.50;99.90
63537;DHT22;49686;51.880;5.632;2024-02-04T09:05:20;10.50;99.90
63537;DHT22;49686;51.880;5.632;2024-02-04T09:07:47;10.60;99.90
63537;DHT22;49686;51.880;5.632;2024-02-04T09:10:15;10.60;99.90
63537;DHT22;49686;51.880;5.632;2024-02-04T09:12:42;10.60;99.90
63537;DHT22;49686;51.880;5.632;2024-02-04T09:15:10;10.60;99.90
63537;DHT22;49686;51.880;5.632;2024-02-04T09:17:37;10.60;99.90
63537;DHT22;49686;51.880;5.632;2024-02-04T09:20:05;10.70;99.90
63537;DHT22;49686;51.880;5.632;2024-02-04T09:22:32;10.70;99.90
63537;DHT22;49686;51.880;5.632;2024-02-04T09:25:00;10.70;99.90
63537;DHT22;49686;51.880;5.632;2024-02-04T09:27:26;10.80;99.90
63537;DHT22;49686;51.880;5.632;2024-02-04T09:29:54;10.80;99.90
63537;DHT22;49686;51.880;5.632;2024-02-04T09:32:22;10.90;99.90
63537;DHT22;49686;51.880;5.632;2024-02-04T09:34:49;10.90;99.90
63537;DHT22;49686;51.880;5.632;2024-02-04T09:37:16;11.00;99.90
63537;DHT22;49686;51.880;5.632;2024-02-04T09:39:43;11.00;99.90
63537;DHT22;49686;51.880;5.632;2024-02-04T09:42:18;11.00;99.90
63537;DHT22;49686;51.880;5.632;2024-02-04T09:44:46;11.10;99.90
63537;DHT22;49686;51.880;5.632;2024-02-04T09:47:13;11.10;99.90
63537;DHT22;49686;51.880;5.632;2024-02-04T09:49:42;11.20;99.90
63537;DHT22;49686;51.880;5.632;2024-02-04T09:52:13;11.20;99.90
63537;DHT22;49686;51.880;5.632;2024-02-04T09:54:44;11.20;99.90
63537;DHT22;49686;51.880;5.632;2024-02-04T09:57:12;11.20;99.90
63537;DHT22;49686;51.880;5.632;2024-02-04T09:59:40;11.30;99.90
63537;DHT22;49686;51.880;5.632;2024-02-04T10:02:07;11.30;99.90
63537;DHT22;49686;51.880;5.632;2024-02-04T10:04:35;11.30;99.90
63537;DHT22;49686;51.880;5.632;2024-02-04T10:07:04;11.30;99.90
63537;DHT22;49686;51.880;5.632;2024-02-04T10:09:31;11.30;99.90
63537;DHT22;49686;51.880;5.632;2024-02-04T10:11:59;11.30;99.90
63537;DHT22;49686;51.880;5.632;2024-02-04T10:14:26;11.30;99.90
63537;DHT22;49686;51.880;5.632;2024-02-04T10:16:53;11.40;99.90
63537;DHT22;49686;51.880;5.632;2024-02-04T10:19:20;11.30;99.90
63537;DHT22;49686;51.880;5.632;2024-02-04T10:21:58;11.30;99.90
63537;DHT22;49686;51.880;5.632;2024-02-04T10:24:26;11.50;99.90
63537;DHT22;49686;51.880;5.632;2024-02-04T10:26:53;11.40;99.90
63537;DHT22;49686;51.880;5.632;2024-02-04T10:29:21;11.50;99.90
63537;DHT22;49686;51.880;5.632;2024-02-04T10:31:48;11.50;99.90
63537;DHT22;49686;51.880;5.632;2024-02-04T10:34:15;11.50;99.90
63537;DHT22;49686;51.880;5.632;2024-02-04T10:36:42;11.50;99.90
63537;DHT22;49686;51.880;5.632;2024-02-04T10:39:09;11.50;99.90
63537;DHT22;49686;51.880;5.632;2024-02-04T10:41:41;11.40;99.90
63537;DHT22;49686;51.880;5.632;2024-02-04T10:44:11;11.40;99.90
63537;DHT22;49686;51.880;5.632;2024-02-04T10:46:42;11.40;99.90
63537;DHT22;49686;51.880;5.632;2024-02-04T10:49:14;11.30;99.90
63537;DHT22;49686;51.880;5.632;2024-02-04T10:51:42;11.20;99.90
63537;DHT22;49686;51.880;5.632;2024-02-04T10:54:10;11.20;99.90
63537;DHT22;49686;51.880;5.632;2024-02-04T10:56:42;11.10;99.90
63537;DHT22;49686;51.880;5.632;2024-02-04T10:59:10;11.00;99.90
63537;DHT22;49686;51.880;5.632;2024-02-04T11:01:38;11.00;99.90
63537;DHT22;49686;51.880;5.632;2024-02-04T11:04:07;10.90;99.90
63537;DHT22;49686;51.880;5.632;2024-02-04T11:06:35;10.90;99.90
63537;DHT22;49686;51.880;5.632;2024-02-04T11:09:03;11.00;99.90
63537;DHT22;49686;51.880;5.632;2024-02-04T11:11:31;10.90;99.90
63537;DHT22;49686;51.880;5.632;2024-02-04T11:14:01;10.90;99.90
63537;DHT22;49686;51.880;5.632;2024-02-04T11:16:46;10.80;99.90
63537;DHT22;49686;51.880;5.632;2024-02-04T11:19:23;10.80;99.90
63537;DHT22;49686;51.880;5.632;2024-02-04T11:22:17;10.80;99.90
63537;DHT22;49686;51.880;5.632;2024-02-04T11:25:02;10.90;99.90
63537;DHT22;49686;51.880;5.632;2024-02-04T11:27:33;10.80;99.90
63537;DHT22;49686;51.880;5.632;2024-02-04T11:30:01;10.80;99.90
63537;DHT22;49686;51.880;5.632;2024-02-04T11:32:28;10.80;99.90
63537;DHT22;49686;51.880;5.632;2024-02-04T11:34:55;10.80;99.90
63537;DHT22;49686;51.880;5.632;2024-02-04T11:37:22;10.80;99.90
63537;DHT22;49686;51.880;5.632;2024-02-04T11:39:50;10.80;99.90
63537;DHT22;49686;51.880;5.632;2024-02-04T11:42:18;10.80;99.90
63537;DHT22;49686;51.880;5.632;2024-02-04T11:44:45;10.80;99.90
63537;DHT22;49686;51.880;5.632;2024-02-04T11:47:23;10.80;99.90
63537;DHT22;49686;51.880;5.632;2024-02-04T11:49:54;10.80;99.90
63537;DHT22;49686;51.880;5.632;2024-02-04T11:52:21;10.80;99.90
63537;DHT22;49686;51.880;5.632;2024-02-04T11:54:49;10.70;99.90
63537;DHT22;49686;51.880;5.632;2024-02-04T11:57:16;10.70;99.90
63537;DHT22;49686;51.880;5.632;2024-02-04T11:59:44;10.70;99.90
63537;DHT22;49686;51.880;5.632;2024-02-04T12:02:12;10.70;99.90
63537;DHT22;49686;51.880;5.632;2024-02-04T12:04:41;10.70;99.90
63537;DHT22;49686;51.880;5.632;2024-02-04T12:07:08;10.70;99.90
63537;DHT22;49686;51.880;5.632;2024-02-04T12:09:36;10.70;99.90
63537;DHT22;49686;51.880;5.632;2024-02-04T12:12:05;10.70;99.90
63537;DHT22;49686;51.880;5.632;2024-02-04T12:14:32;10.70;99.90
63537;DHT22;49686;51.880;5.632;2024-02-04T12:17:06;10.60;99.90
63537;DHT22;49686;51.880;5.632;2024-02-04T12:19:33;10.70;99.90
63537;DHT22;49686;51.880;5.632;2024-02-04T12:22:02;10.70;99.90
63537;DHT22;49686;51.880;5.632;2024-02-04T12:24:29;10.70;99.90
63537;DHT22;49686;51.880;5.632;2024-02-04T12:26:57;10.70;99.90
63537;DHT22;49686;51.880;5.632;2024-02-04T12:29:24;10.70;99.90
63537;DHT22;49686;51.880;5.632;2024-02-04T12:31:58;10.70;99.90
63537;DHT22;49686;51.880;5.632;2024-02-04T12:34:25;10.70;99.90
63537;DHT22;49686;51.880;5.632;2024-02-04T12:36:58;10.80;99.90
63537;DHT22;49686;51.880;5.632;2024-02-04T12:39:26;10.80;99.90
63537;DHT22;49686;51.880;5.632;2024-02-04T12:41:53;10.90;99.90
63537;DHT22;49686;51.880;5.632;2024-02-04T12:44:20;10.90;99.90
63537;DHT22;49686;51.880;5.632;2024-02-04T12:46:50;10.90;99.90
63537;DHT22;49686;51.880;5.632;2024-02-04T12:49:19;10.80;99.90
63537;DHT22;49686;51.880;5.632;2024-02-04T12:51:46;10.90;99.90
63537;DHT22;49686;51.880;5.632;2024-02-04T12:54:13;10.90;99.90
63537;DHT22;49686;51.880;5.632;2024-02-04T12:56:46;10.90;99.90
63537;DHT22;49686;51.880;5.632;2024-02-04T12:59:24;10.90;99.90
63537;DHT22;49686;51.880;5.632;2024-02-04T13:01:54;10.90;99.90
63537;DHT22;49686;51.880;5.632;2024-02-04T13:04:22;11.00;99.90
63537;DHT22;49686;51.880;5.632;2024-02-04T13:06:49;11.00;99.90
63537;DHT22;49686;51.880;5.632;2024-02-04T13:09:16;11.00;99.90
63537;DHT22;49686;51.880;5.632;2024-02-04T13:11:45;11.00;99.90
63537;DHT22;49686;51.880;5.632;2024-02-04T13:14:12;11.00;99.90
63537;DHT22;49686;51.880;5.632;2024-02-04T13:16:39;11.00;99.90
63537;DHT22;49686;51.880;5.632;2024-02-04T13:19:06;10.90;99.90
63537;DHT22;49686;51.880;5.632;2024-02-04T13:21:33;10.90;99.90
63537;DHT22;49686;51.880;5.632;2024-02-04T13:24:00;10.90;99.90
63537;DHT22;49686;51.880;5.632;2024-02-04T13:26:27;10.90;99.90
63537;DHT22;49686;51.880;5.632;2024-02-04T13:28:55;10.90;99.90
63537;DHT22;49686;51.880;5.632;2024-02-04T13:31:22;10.90;99.90
63537;DHT22;49686;51.880;5.632;2024-02-04T13:33:49;11.00;99.90
63537;DHT22;49686;51.880;5.632;2024-02-04T13:36:16;11.00;99.90
63537;DHT22;49686;51.880;5.632;2024-02-04T13:38:45;11.10;99.90
63537;DHT22;49686;51.880;5.632;2024-02-04T13:41:14;11.10;99.90
63537;DHT22;49686;51.880;5.632;2024-02-04T13:43:41;11.10;99.90
63537;DHT22;49686;51.880;5.632;2024-02-04T13:46:09;11.20;99.90
63537;DHT22;49686;51.880;5.632;2024-02-04T13:48:36;11.20;99.90
63537;DHT22;49686;51.880;5.632;2024-02-04T13:51:04;11.20;99.90
63537;DHT22;49686;51.880;5.632;2024-02-04T13:53:31;11.20;99.90
63537;DHT22;49686;51.880;5.632;2024-02-04T13:55:58;11.20;99.90
63537;DHT22;49686;51.880;5.632;2024-02-04T13:58:26;11.30;99.90
63537;DHT22;49686;51.880;5.632;2024-02-04T14:00:53;11.30;99.90
63537;DHT22;49686;51.880;5.632;2024-02-04T14:03:21;11.30;99.90
63537;DHT22;49686;51.880;5.632;2024-02-04T14:05:49;11.40;99.90
63537;DHT22;49686;51.880;5.632;2024-02-04T14:08:16;11.30;99.90
63537;DHT22;49686;51.880;5.632;2024-02-04T14:10:43;11.30;99.90
63537;DHT22;49686;51.880;5.632;2024-02-04T14:13:10;11.30;99.90
63537;DHT22;49686;51.880;5.632;2024-02-04T14:15:37;11.30;99.90
63537;DHT22;49686;51.880;5.632;2024-02-04T14:18:04;11.30;99.90
63537;DHT22;49686;51.880;5.632;2024-02-04T14:20:33;11.40;99.90
63537;DHT22;49686;51.880;5.632;2024-02-04T14:23:00;11.30;99.90
63537;DHT22;49686;51.880;5.632;2024-02-04T14:25:26;11.40;99.90
63537;DHT22;49686;51.880;5.632;2024-02-04T14:27:57;11.40;99.90
63537;DHT22;49686;51.880;5.632;2024-02-04T14:30:23;11.40;99.90
63537;DHT22;49686;51.880;5.632;2024-02-04T14:32:50;11.40;99.90
63537;DHT22;49686;51.880;5.632;2024-02-04T14:35:17;11.40;99.90
63537;DHT22;49686;51.880;5.632;2024-02-04T14:37:46;11.40;99.90
63537;DHT22;49686;51.880;5.632;2024-02-04T14:40:13;11.40;99.90
63537;DHT22;49686;51.880;5.632;2024-02-04T14:42:40;11.40;99.90
63537;DHT22;49686;51.880;5.632;2024-02-04T14:45:09;11.50;99.90
63537;DHT22;49686;51.880;5.632;2024-02-04T14:47:36;11.50;99.90
63537;DHT22;49686;51.880;5.632;2024-02-04T14:50:04;11.50;99.90
63537;DHT22;49686;51.880;5.632;2024-02-04T14:52:31;11.50;99.90
63537;DHT22;49686;51.880;5.632;2024-02-04T14:54:59;11.50;99.90
63537;DHT22;49686;51.880;5.632;2024-02-04T14:57:26;11.50;99.90
63537;DHT22;49686;51.880;5.632;2024-02-04T14:59:53;11.50;99.90
63537;DHT22;49686;51.880;5.632;2024-02-04T15:02:20;11.50;99.90
63537;DHT22;49686;51.880;5.632;2024-02-04T15:04:47;11.50;99.90
63537;DHT22;49686;51.880;5.632;2024-02-04T15:07:14;11.50;99.90
63537;DHT22;49686;51.880;5.632;2024-02-04T15:09:41;11.50;99.90
63537;DHT22;49686;51.880;5.632;2024-02-04T15:12:11;11.40;99.90
63537;DHT22;49686;51.880;5.632;2024-02-04T15:14:38;11.50;99.90
63537;DHT22;49686;51.880;5.632;2024-02-04T15:17:06;11.40;99.90
63537;DHT22;49686;51.880;5.632;2024-02-04T15:19:34;11.50;99.90
63537;DHT22;49686;51.880;5.632;2024-02-04T15:22:01;11.40;99.90
63537;DHT22;49686;51.880;5.632;2024-02-04T15:24:29;11.40;99.90
63537;DHT22;49686;51.880;5.632;2024-02-04T15:26:57;11.40;99.90
63537;DHT22;49686;51.880;5.632;2024-02-04T15:29:27;11.40;99.90
63537;DHT22;49686;51.880;5.632;2024-02-04T15:31:54;11.40;99.90
63537;DHT22;49686;51.880;5.632;2024-02-04T15:34:22;11.40;99.90